Waskaganish, Canada
Current Conditions -  °F | °C
As of 2:00 PM on Saturday 25 Oct 2014 (Local Time) from CYMO Reporting Station
Overcast Overcast  
Wind Chill: 50°   Ceiling: 1000
Heat Index: 50°   Visibility: 9mi
Dew Point: 46°   Wind: 9mph
Humidity: 87%   Direction: 250°WSW
Pressure: 29.22"   Gusts: 17mph
Location:  51.49°N, 78.75°W
Report Text: CYMO 251800Z AUTO 25008G15KT 9SM OVC010 10/08 A2922 RMK SLP893 DENSITY ALT 100FT
Loading
Personal Weather Stations






























Interactive Weather Map
Tropical Storm Tracking
New forecast layout! Learn more

10-Day Weather Forecast

Advertisements
Track Severe Weather on mobile